Weather reports worldwide

Advertisment
Puerto Leitariegos, Spain (8052): temperature & dewpoint: 30.06.2020 07:00:00 - 06.07.2020 07:00:00 (CEST)Puerto Leitariegos, Spain (8052): wind speed & gusts: 30.06.2020 07:00:00 - 06.07.2020 07:00:00 (CEST)Puerto Leitariegos, Spain (8052): wind direction: 30.06.2020 07:00:00 - 06.07.2020 07:00:00 (CEST)Puerto Leitariegos, Spain (8052): visibility: 30.06.2020 07:00:00 - 06.07.2020 07:00:00 (CEST)Puerto Leitariegos, Spain (8052): sunshine duration: 30.06.2020 07:00:00 - 06.07.2020 07:00:00 (CEST)Puerto Leitariegos, Spain (8052): precipitation: 30.06.2020 07:00:00 - 06.07.2020 07:00:00 (CEST)
Date & Time tt [°C] td [°C] ff [km/h] ff [kn] fx [km/h] fx [kn] dd vv [km] sd [min] rr [mm]
06.07.2020 07:00:00 - - - - - - - - - -
06.07.2020 06:00:00 11,2 10,5 15 8 21 11 NNW 0,1 0 0,0
06.07.2020 05:00:00 11,0 10,2 14 8 18 10 NNW 0,1 0 0,0
06.07.2020 04:00:00 - - - - - - - - - -
06.07.2020 03:00:00 11,8 9,2 1 1 5 3 ESE 20 0 0,0
06.07.2020 02:00:00 12,0 10,0 1 1 8 5 N 20 0 -
06.07.2020 01:00:00 12,5 11,7 8 4 16 8 NNW 0,3 0 0,0
06.07.2020 00:00:00 13,8 13,1 12 6 19 10 NNW 0,2 0 0,0
05.07.2020 23:00:00 14,4 13,7 14 8 23 12 NNW 0,4 0 0,0
05.07.2020 22:00:00 15,1 14,1 16 9 24 13 NW 0,4 0 0,0
05.07.2020 21:00:00 16,5 14,7 16 9 28 15 NNW 18 0 0,0
05.07.2020 20:00:00 18,6 15,3 17 9 29 16 NW 20 57 -
05.07.2020 19:00:00 20,1 15,5 18 10 26 14 NW 20 49 0,0
05.07.2020 18:00:00 19,0 14,9 20 11 33 18 NW 20 35 0,0
05.07.2020 17:00:00 21,4 15,7 21 11 33 18 NW 20 60 0,0
05.07.2020 16:00:00 21,5 15,6 20 11 32 17 NW 20 60 0,0
05.07.2020 15:00:00 22,1 15,7 19 10 29 16 NW 20 60 0,0
05.07.2020 14:00:00 22,0 15,8 17 9 24 13 NW 20 60 -
05.07.2020 13:00:00 21,8 14,7 15 8 19 11 NW 20 60 0,0
05.07.2020 12:00:00 21,2 13,7 11 6 17 9 NW 20 60 0,0
05.07.2020 11:00:00 21,5 11,8 8 4 13 7 SE 20 60 0,0
05.07.2020 10:00:00 - - - - - - - - - -
05.07.2020 09:00:00 17,0 10,4 5 3 8 4 SSE 20 51 0,0
05.07.2020 08:00:00 13,3 9,2 5 3 10 6 ESE 20 0 -
05.07.2020 07:00:00 12,0 7,7 1 1 5 3 NW 20 0 0,0
05.07.2020 06:00:00 12,4 7,8 2 1 7 4 NNW 20 0 0,0
05.07.2020 05:00:00 12,9 7,7 2 1 7 4 ESE 20 0 0,0
05.07.2020 04:00:00 - - - - - - - - - -
05.07.2020 03:00:00 12,9 8,5 0 0 5 3 N 20 0 0,0
05.07.2020 02:00:00 13,3 9,3 4 2 7 4 SE 20 0 -
05.07.2020 01:00:00 13,2 7,6 4 2 7 4 SE 20 0 0,0
05.07.2020 00:00:00 - - - - - - - - - -
04.07.2020 23:00:00 13,9 9,7 8 5 14 8 NW 20 0 0,0
04.07.2020 22:00:00 13,4 11,4 11 6 21 12 NNW 20 0 0,0
04.07.2020 21:00:00 15,9 12,6 16 8 24 13 NW 20 52 0,0
04.07.2020 20:00:00 18,2 12,0 17 9 31 17 NW 20 60 -
04.07.2020 19:00:00 20,2 11,9 16 9 35 19 WNW 20 60 0,0
04.07.2020 18:00:00 20,6 11,0 18 10 31 17 WNW 20 60 0,0
04.07.2020 17:00:00 20,5 10,6 19 11 31 17 NW 20 60 0,0
04.07.2020 16:00:00 20,6 11,2 14 8 29 16 NW 20 60 0,0
04.07.2020 15:00:00 20,3 11,2 17 9 28 15 NW 20 60 0,0
04.07.2020 14:00:00 20,3 10,4 14 8 23 12 NW 20 60 -
04.07.2020 13:00:00 18,9 8,0 16 9 22 12 NW 20 60 0,0
04.07.2020 12:00:00 18,4 5,3 14 7 21 11 NW 20 60 0,0
04.07.2020 11:00:00 17,8 0,0 12 6 20 11 NNW 20 60 0,0
04.07.2020 10:00:00 16,4 2,5 9 5 19 10 N 20 60 0,0
04.07.2020 09:00:00 14,4 1,9 11 6 16 8 NNW 20 51 0,0
04.07.2020 08:00:00 9,4 -3,6 11 6 16 9 NNW 20 0 -
04.07.2020 07:00:00 - - - - - - - - - -
04.07.2020 06:00:00 7,9 -3,0 2 1 15 8 NW 20 0 0,0
04.07.2020 05:00:00 - - - - - - - - - -
04.07.2020 04:00:00 9,4 -4,2 10 5 17 9 NW 20 0 0,0
04.07.2020 03:00:00 9,1 0,0 12 7 17 9 NW 20 0 0,0
04.07.2020 02:00:00 - - - - - - - - - -
04.07.2020 01:00:00 8,8 -2,0 8 4 19 11 NW 20 0 0,0
04.07.2020 00:00:00 9,4 1,5 15 8 19 11 NW 20 0 0,0
03.07.2020 23:00:00 9,5 7,8 15 8 16 9 NW 17 0 0,0
03.07.2020 22:00:00 - - - - - - - - - -
03.07.2020 21:00:00 11,8 9,9 14 8 25 14 NNW 15 53 0,0
03.07.2020 20:00:00 14,2 10,4 20 11 27 15 NW 20 60 -
03.07.2020 19:00:00 15,8 9,4 18 10 31 17 NW 20 60 0,0
03.07.2020 18:00:00 16,2 8,4 18 10 31 17 NW 20 60 0,0
03.07.2020 17:00:00 16,5 9,2 18 10 26 14 NW 20 60 0,0
03.07.2020 16:00:00 16,5 8,7 16 9 24 13 NW 20 60 0,0
03.07.2020 15:00:00 15,2 10,8 16 9 28 15 NW 20 60 0,0
03.07.2020 14:00:00 13,9 10,2 17 9 26 14 NW 17 60 -
03.07.2020 13:00:00 - - - - - - - - - -
03.07.2020 12:00:00 10,6 7,7 16 9 25 13 NNW 20 60 0,0
03.07.2020 11:00:00 11,3 5,8 4 2 16 9 ENE 20 60 0,0
03.07.2020 10:00:00 - - - - - - - - - -
03.07.2020 09:00:00 6,1 4,1 9 5 13 7 SE 20 52 0,0
03.07.2020 08:00:00 - - - - - - - - - -
03.07.2020 07:00:00 2,0 1,1 6 3 10 5 SE 20 0 0,0
03.07.2020 06:00:00 - - - - - - - - - -
03.07.2020 05:00:00 2,1 0,9 4 2 13 7 SE 20 0 0,0
03.07.2020 04:00:00 - - - - - - - - - -
03.07.2020 03:00:00 4,0 2,3 7 4 17 9 WNW 20 0 0,0
03.07.2020 02:00:00 - - - - - - - - - -
03.07.2020 01:00:00 5,2 4,6 8 4 19 11 NNW 20 0 0,0
03.07.2020 00:00:00 5,6 5,0 12 6 19 10 NW 0,6 0 0,0
02.07.2020 23:00:00 - - - - - - - - - -
02.07.2020 22:00:00 6,2 5,6 14 8 24 13 WNW 0,5 0 0,0
02.07.2020 21:00:00 6,8 6,2 15 8 25 14 NW 0,6 0 0,0
02.07.2020 20:00:00 - - - - - - - - - -
02.07.2020 19:00:00 8,2 7,0 16 8 31 17 WNW 0,3 0 0,0
02.07.2020 18:00:00 - - - - - - - - - -
02.07.2020 17:00:00 9,9 7,8 22 12 36 20 NW 18 20 0,0
02.07.2020 16:00:00 11,8 9,0 22 12 35 19 NW 20 38 0,0
02.07.2020 15:00:00 - - - - - - - - - -
02.07.2020 14:00:00 11,9 8,5 19 10 33 18 NW 20 51 -
02.07.2020 13:00:00 9,8 8,9 16 8 23 12 NW 20 35 0,0
02.07.2020 12:00:00 - - - - - - - - - -
02.07.2020 11:00:00 7,7 7,1 16 8 21 12 NW 0,7 4 0,0
02.07.2020 10:00:00 7,5 6,8 13 7 19 10 NW 0,6 0 0,0
02.07.2020 09:00:00 - - - - - - - - - -
02.07.2020 08:00:00 7,8 7,1 10 5 14 8 NW 0,9 0 -
02.07.2020 07:00:00 8,0 7,4 8 4 16 9 NNW 0,1 0 0,0
02.07.2020 06:00:00 - - - - - - - - - -
02.07.2020 05:00:00 9,0 8,4 10 5 16 8 N 0,1 0 0,0
02.07.2020 04:00:00 9,2 8,4 6 3 19 10 NW 20 0 0,0
02.07.2020 03:00:00 10,0 8,0 13 7 29 16 NNW 20 0 0,0
02.07.2020 02:00:00 10,5 8,1 13 7 29 16 NNW 20 0 -
02.07.2020 01:00:00 9,6 7,0 10 5 28 15 NW 20 0 0,0
02.07.2020 00:00:00 10,4 8,5 8 4 18 10 NNW 20 0 0,0
01.07.2020 23:00:00 11,2 10,4 8 4 18 10 NNW 0,3 0 0,0
01.07.2020 22:00:00 12,0 10,9 9 5 17 9 NNW 0,2 1 0,0
01.07.2020 21:00:00 13,2 11,1 11 6 18 10 NW 20 0 0,0
01.07.2020 20:00:00 13,8 11,3 12 6 29 16 NW 20 0 -
01.07.2020 19:00:00 14,9 11,4 15 8 29 16 NNW 20 1 0,0
01.07.2020 18:00:00 16,3 10,8 18 10 35 19 NNW 20 28 0,0
01.07.2020 17:00:00 17,9 11,9 17 9 27 14 NNW 20 54 0,0
01.07.2020 16:00:00 16,6 11,8 11 6 30 16 NW 20 8 0,0
01.07.2020 15:00:00 15,9 12,2 14 8 29 16 NW 20 23 0,0
01.07.2020 14:00:00 18,1 13,0 14 8 28 15 NNW 20 54 -
01.07.2020 13:00:00 18,2 12,4 14 8 24 13 NNW 20 60 0,0
01.07.2020 12:00:00 17,5 12,6 14 7 22 12 NW 20 59 0,0
01.07.2020 11:00:00 16,7 11,0 13 7 27 15 N 19 60 0,0
01.07.2020 10:00:00 - - - - - - - - - -
01.07.2020 09:00:00 14,2 9,7 5 3 10 6 SE 20 52 0,0
01.07.2020 08:00:00 9,5 6,4 5 3 9 5 NW 20 0 -
01.07.2020 07:00:00 9,5 5,3 7 4 11 6 NW 20 0 0,0
01.07.2020 06:00:00 - - - - - - - - - -
01.07.2020 05:00:00 10,1 7,1 4 2 13 7 NNW 20 0 0,0
01.07.2020 04:00:00 10,8 6,1 7 4 11 6 WNW 20 0 0,0
01.07.2020 03:00:00 - - - - - - - - - -
01.07.2020 02:00:00 12,9 11,0 5 3 13 7 WNW 20 0 -
01.07.2020 01:00:00 13,2 11,6 9 5 13 7 NW 20 0 0,0
01.07.2020 00:00:00 14,1 13,2 8 4 11 6 NNW 0,5 0 0,0
30.06.2020 23:00:00 15,3 13,3 1 1 10 6 ENE - 0 0,0
30.06.2020 22:00:00 15,9 14,8 8 4 14 8 NNW 0,6 4 0,0
30.06.2020 21:00:00 16,8 12,3 8 4 24 13 SSE 20 7 0,0
30.06.2020 20:00:00 19,3 16,7 15 8 24 13 NW 14 34 -
30.06.2020 19:00:00 19,2 16,6 13 7 22 12 NW 20 15 0,0
30.06.2020 18:00:00 18,5 15,2 16 9 26 14 NW 20 8 0,0
30.06.2020 17:00:00 19,6 15,6 15 8 25 14 NW 20 30 0,0
30.06.2020 16:00:00 20,3 16,1 15 8 23 13 NNW 20 20 0,0
30.06.2020 15:00:00 20,2 15,4 11 6 21 11 NNW 20 43 0,0
30.06.2020 14:00:00 21,6 13,5 7 4 17 9 NNW 20 50 -
30.06.2020 13:00:00 21,0 13,5 5 3 21 11 S 20 35 0,0
30.06.2020 12:00:00 21,0 13,2 8 5 21 11 ESE 20 56 0,0
30.06.2020 11:00:00 20,2 13,7 14 8 21 12 SE 20 60 0,0
30.06.2020 10:00:00 18,3 12,3 11 6 15 8 SE 20 60 0,0
30.06.2020 09:00:00 16,2 11,1 8 5 11 6 SE 18 52 0,0
30.06.2020 08:00:00 12,2 9,2 9 5 10 5 SE 20 0 -
30.06.2020 07:00:00 11,2 8,4 6 3 9 5 SE 20 0 0,0

tt = temperature
td = dewpoint
ff = wind speed
fx = gusts
dd = wind direction
vv = visibility
sd = sunshine duration
rr = precipitation

Next stations